createdAt,value
2022-12-12T00:01:34.307Z,97171.66
2022-12-12T00:04:00.998Z,97150.00
2022-12-12T00:06:28.255Z,97160.84
2022-12-12T00:08:54.938Z,97118.66
2022-12-12T00:11:22.883Z,97160.97
2022-12-12T00:13:49.958Z,97131.97
2022-12-12T00:16:17.230Z,97157.38
2022-12-12T00:18:43.892Z,97144.31
2022-12-12T00:21:19.941Z,97117.53
2022-12-12T00:23:47.200Z,97100.88
2022-12-12T00:26:20.394Z,97142.38
2022-12-12T00:28:47.309Z,97161.53
2022-12-12T00:31:14.007Z,97133.78
2022-12-12T00:33:40.857Z,97157.09
2022-12-12T00:36:08.562Z,97151.81
2022-12-12T00:38:35.191Z,97147.78
2022-12-12T00:41:02.449Z,97146.41
2022-12-12T00:43:29.385Z,97156.09
2022-12-12T00:45:59.326Z,97163.91
2022-12-12T00:48:28.219Z,97150.16
2022-12-12T00:50:56.354Z,97158.47
2022-12-12T00:53:23.351Z,97156.81
2022-12-12T00:55:59.530Z,97155.00
2022-12-12T00:58:27.083Z,97130.72
2022-12-12T01:00:54.457Z,97154.72
2022-12-12T01:03:22.015Z,97137.63
2022-12-12T01:05:48.658Z,97153.91
2022-12-12T01:08:15.412Z,97103.50
2022-12-12T01:10:42.249Z,97141.53
2022-12-12T01:13:08.961Z,97134.03
2022-12-12T01:15:35.531Z,97139.84
2022-12-12T01:18:02.144Z,97138.19
2022-12-12T01:20:28.944Z,97140.41
2022-12-12T01:22:56.688Z,97131.38
2022-12-12T01:25:23.816Z,97125.44
2022-12-12T01:27:50.594Z,97135.97
2022-12-12T01:30:19.725Z,97142.06
2022-12-12T01:32:46.496Z,97142.06
2022-12-12T01:35:13.176Z,97131.41
2022-12-12T01:37:41.355Z,97135.88
2022-12-12T01:40:13.244Z,97135.88
2022-12-12T01:42:39.892Z,97112.09
2022-12-12T01:45:06.989Z,97103.09
2022-12-12T01:47:33.656Z,97129.63
2022-12-12T01:50:09.385Z,97132.25
2022-12-12T01:52:44.197Z,97089.19
2022-12-12T01:55:16.029Z,97107.78
2022-12-12T01:57:46.197Z,97110.97
2022-12-12T02:00:14.459Z,97120.97
2022-12-12T02:02:46.107Z,97126.00
2022-12-12T02:05:28.061Z,97115.84
2022-12-12T02:07:55.744Z,97127.81
2022-12-12T02:10:22.344Z,97119.88
2022-12-12T02:12:49.059Z,97118.09
2022-12-12T02:15:15.909Z,97067.44
2022-12-12T02:18:06.688Z,97120.75
2022-12-12T02:21:04.351Z,97125.16
2022-12-12T02:24:03.289Z,97122.38
2022-12-12T02:26:51.585Z,97120.75
2022-12-12T02:29:19.214Z,97120.84
2022-12-12T02:31:52.807Z,97121.69
2022-12-12T02:34:45.495Z,97091.72
2022-12-12T02:37:18.640Z,97117.25
2022-12-12T02:40:10.357Z,97116.44
2022-12-12T02:42:55.735Z,97119.88
2022-12-12T02:45:28.227Z,97128.78
2022-12-12T02:48:01.218Z,97104.44
2022-12-12T02:50:30.774Z,97126.97
2022-12-12T02:52:59.919Z,97119.06
2022-12-12T02:55:26.894Z,97115.56
2022-12-12T02:57:54.211Z,97111.97
2022-12-12T03:00:21.574Z,97117.25
2022-12-12T03:03:28.430Z,97112.94
2022-12-12T03:06:16.621Z,97123.50
2022-12-12T03:08:55.344Z,97110.28
2022-12-12T03:11:50.880Z,97107.78
2022-12-12T03:14:36.690Z,97111.38
2022-12-12T03:17:14.295Z,97104.88
2022-12-12T03:19:48.464Z,97111.16
2022-12-12T03:22:27.162Z,97110.28
2022-12-12T03:25:09.182Z,97110.28
2022-12-12T03:27:43.626Z,97116.50
2022-12-12T03:30:16.581Z,97120.03
2022-12-12T03:32:58.594Z,97102.81
2022-12-12T03:35:33.972Z,97113.88
2022-12-12T03:38:06.527Z,97101.94
2022-12-12T03:40:43.609Z,97109.47
2022-12-12T03:43:14.691Z,97099.06
2022-12-12T03:45:55.568Z,97119.16
2022-12-12T03:48:29.354Z,97112.94
2022-12-12T03:50:58.288Z,97102.53
2022-12-12T03:53:36.363Z,97102.53
2022-12-12T03:56:19.914Z,97113.22
2022-12-12T03:58:52.854Z,97098.91
2022-12-12T04:01:28.403Z,97097.53
2022-12-12T04:04:32.400Z,97093.91
2022-12-12T04:07:06.113Z,97108.19
2022-12-12T04:09:59.305Z,97102.81
2022-12-12T04:12:56.541Z,97110.72
2022-12-12T04:15:39.628Z,97117.63
2022-12-12T04:18:16.338Z,97109.72
2022-12-12T04:21:13.103Z,97099.63
2022-12-12T04:23:56.379Z,97116.97
2022-12-12T04:26:41.696Z,97116.00
2022-12-12T04:29:23.616Z,97111.69
2022-12-12T04:32:12.794Z,97109.03
2022-12-12T04:34:52.172Z,97114.44
2022-12-12T04:37:23.921Z,97109.16
2022-12-12T04:39:54.242Z,97107.94
2022-12-12T04:42:25.723Z,97117.06
2022-12-12T04:44:56.179Z,97120.56
2022-12-12T04:47:24.764Z,97121.94
2022-12-12T04:49:53.882Z,97090.72
2022-12-12T04:52:22.443Z,97099.75
2022-12-12T04:55:24.418Z,97120.72
2022-12-12T04:57:54.726Z,97117.22
2022-12-12T05:00:22.957Z,97106.28
2022-12-12T05:02:55.527Z,97115.56
2022-12-12T05:05:29.631Z,97094.91
2022-12-12T05:08:02.712Z,97120.28
2022-12-12T05:10:30.287Z,97119.16
2022-12-12T05:12:59.966Z,97123.78
2022-12-12T05:15:28.323Z,97123.63
2022-12-12T05:18:07.900Z,97127.22
2022-12-12T05:20:34.822Z,97076.16
2022-12-12T05:23:01.406Z,97122.91
2022-12-12T05:25:28.075Z,97121.13
2022-12-12T05:27:54.604Z,97112.38
2022-12-12T05:30:21.570Z,97121.41
2022-12-12T05:32:48.535Z,97127.38
2022-12-12T05:35:15.393Z,97088.13
2022-12-12T05:37:45.520Z,97115.00
2022-12-12T05:40:16.557Z,97124.03
2022-12-12T05:42:43.124Z,97120.03
2022-12-12T05:45:11.126Z,97121.28
2022-12-12T05:47:38.195Z,97114.75
2022-12-12T05:50:05.890Z,97118.66
2022-12-12T05:52:32.775Z,97128.63
2022-12-12T05:54:59.469Z,97111.81
2022-12-12T05:57:26.002Z,97096.16
2022-12-12T05:59:52.751Z,97105.19
2022-12-12T06:02:19.436Z,97140.72
2022-12-12T06:04:47.689Z,97073.69
2022-12-12T06:07:14.290Z,97127.38
2022-12-12T06:09:41.008Z,97142.50
2022-12-12T06:12:08.032Z,97086.72
2022-12-12T06:14:34.665Z,97124.47
2022-12-12T06:17:01.418Z,97122.41
2022-12-12T06:19:28.204Z,97111.72
2022-12-12T06:21:54.744Z,97122.41
2022-12-12T06:24:21.440Z,97154.16
2022-12-12T06:26:47.993Z,97125.03
2022-12-12T06:29:15.223Z,97156.13
2022-12-12T06:31:41.928Z,97164.88
2022-12-12T06:34:08.573Z,97133.06
2022-12-12T06:36:35.175Z,97162.38
2022-12-12T06:39:02.039Z,97159.75
2022-12-12T06:41:30.401Z,97150.00
2022-12-12T06:43:57.349Z,97168.47
2022-12-12T06:46:27.240Z,97161.94
2022-12-12T06:48:55.135Z,97168.06
2022-12-12T06:51:24.752Z,97161.25
2022-12-12T06:53:51.527Z,97171.66
2022-12-12T06:56:24.006Z,97136.25
2022-12-12T06:58:51.646Z,97156.13
2022-12-12T07:01:20.386Z,97117.13
2022-12-12T07:03:49.523Z,97176.13
2022-12-12T07:06:17.392Z,97058.78
2022-12-12T07:08:44.325Z,97181.50
2022-12-12T07:11:13.274Z,97181.41
2022-12-12T07:13:40.532Z,97171.81
2022-12-12T07:16:07.530Z,97190.28
2022-12-12T07:18:35.008Z,97167.91
2022-12-12T07:21:05.749Z,97180.28
2022-12-12T07:23:33.636Z,97188.75
2022-12-12T07:26:04.108Z,97192.34
2022-12-12T07:28:31.039Z,97175.25
2022-12-12T07:30:57.669Z,97189.72
2022-12-12T07:33:29.760Z,97162.06
2022-12-12T07:36:02.812Z,97158.19
2022-12-12T07:38:29.371Z,97174.84
2022-12-12T07:40:56.019Z,97190.13
2022-12-12T07:43:26.467Z,97186.66
2022-12-12T07:45:53.460Z,97178.06
2022-12-12T07:48:20.287Z,97169.88
2022-12-12T07:50:50.420Z,97183.19
2022-12-12T07:53:16.945Z,97186.66
2022-12-12T07:55:43.516Z,97178.44
2022-12-12T07:58:10.143Z,97182.34
2022-12-12T08:00:36.747Z,97169.72
2022-12-12T08:03:03.420Z,97147.34
2022-12-12T08:05:29.980Z,97176.53
2022-12-12T08:07:56.704Z,97169.97
2022-12-12T08:10:23.314Z,97190.13
2022-12-12T08:12:50.138Z,97174.03
2022-12-12T08:15:17.990Z,97177.88
2022-12-12T08:17:44.783Z,97193.59
2022-12-12T08:20:11.683Z,97183.88
2022-12-12T08:22:38.287Z,97192.63
2022-12-12T08:25:05.279Z,97191.78
2022-12-12T08:27:32.645Z,97203.16
2022-12-12T08:29:59.223Z,97200.53
2022-12-12T08:32:25.827Z,97197.88
2022-12-12T08:34:58.883Z,97197.22
2022-12-12T08:37:25.764Z,97176.38
2022-12-12T08:39:55.563Z,97200.41
2022-12-12T08:42:22.786Z,97202.06
2022-12-12T08:44:49.911Z,97205.53
2022-12-12T08:47:16.518Z,97193.06
2022-12-12T08:49:43.511Z,97162.50
2022-12-12T08:52:10.427Z,97197.31
2022-12-12T08:54:38.141Z,97205.53
2022-12-12T08:57:04.769Z,97209.97
2022-12-12T08:59:31.303Z,97196.66
2022-12-12T09:01:58.048Z,97201.09
2022-12-12T09:04:24.689Z,97206.50
2022-12-12T09:06:51.293Z,97210.81
2022-12-12T09:11:42.517Z,97204.69
2022-12-12T09:14:09.143Z,97202.91
2022-12-12T09:16:35.724Z,97202.91
2022-12-12T09:19:02.346Z,97205.41
2022-12-12T09:21:28.857Z,97205.41
2022-12-12T09:23:55.435Z,97209.69
2022-12-12T09:26:22.099Z,97214.97
2022-12-12T09:28:49.373Z,97213.88
2022-12-12T09:31:17.622Z,97193.47
2022-12-12T09:33:44.390Z,97208.44
2022-12-12T09:36:14.994Z,97190.81
2022-12-12T09:38:41.851Z,97209.16
2022-12-12T09:41:20.411Z,97208.19
2022-12-12T09:44:09.983Z,97211.53
2022-12-12T09:46:44.238Z,97195.16
2022-12-12T09:49:12.970Z,97211.38
2022-12-12T09:51:41.798Z,97210.41
2022-12-12T09:54:13.196Z,97205.97
2022-12-12T09:56:53.543Z,97204.13
2022-12-12T09:59:29.780Z,97203.31
2022-12-12T10:02:38.163Z,97217.06
2022-12-12T10:05:17.203Z,97209.16
2022-12-12T10:07:57.497Z,97188.19
2022-12-12T10:10:40.235Z,97208.03
2022-12-12T10:13:14.728Z,97208.75
2022-12-12T10:15:46.468Z,97207.78
2022-12-12T10:18:26.902Z,97202.50
2022-12-12T10:20:57.475Z,97201.38
2022-12-12T10:23:33.355Z,97204.03
2022-12-12T10:26:07.087Z,97202.22
2022-12-12T10:28:35.711Z,97201.09
2022-12-12T10:31:30.235Z,97204.59
2022-12-12T10:34:09.022Z,97203.72
2022-12-12T10:39:14.536Z,97201.94
2022-12-12T10:41:44.031Z,97203.72
2022-12-12T10:44:13.972Z,97204.59
2022-12-12T10:46:59.632Z,97204.59
2022-12-12T10:49:26.557Z,97173.34
2022-12-12T10:54:28.070Z,97195.81
2022-12-12T10:57:09.376Z,97192.34
2022-12-12T10:59:48.158Z,97195.25
2022-12-12T11:02:39.524Z,97201.09
2022-12-12T11:05:21.692Z,97203.72
2022-12-12T11:07:59.533Z,97195.25
2022-12-12T11:10:35.537Z,97196.94
2022-12-12T11:13:13.551Z,97199.44
2022-12-12T11:15:58.443Z,97197.63
2022-12-12T11:18:26.603Z,97194.16
2022-12-12T11:20:57.269Z,97189.72
2022-12-12T11:23:26.866Z,97199.31
2022-12-12T11:25:57.267Z,97190.84
2022-12-12T11:28:27.953Z,97148.06
2022-12-12T11:30:56.485Z,97198.22
2022-12-12T11:33:32.440Z,97197.25
2022-12-12T11:35:59.593Z,97190.16
2022-12-12T11:38:37.206Z,97192.81
2022-12-12T11:41:07.266Z,97187.53
2022-12-12T11:43:52.421Z,97195.28
2022-12-12T11:46:23.638Z,97191.84
2022-12-12T11:48:53.242Z,97190.00
2022-12-12T11:51:43.181Z,97186.56
2022-12-12T11:54:16.044Z,97195.28
2022-12-12T11:56:58.434Z,97197.94
2022-12-12T11:59:43.716Z,97200.56
2022-12-12T12:02:24.724Z,97162.78
2022-12-12T12:05:20.368Z,97199.03
2022-12-12T12:08:24.577Z,97193.63
2022-12-12T12:11:26.491Z,97207.81
2022-12-12T12:14:05.516Z,97197.25
2022-12-12T12:16:35.152Z,97206.00
2022-12-12T12:19:31.038Z,97209.88
2022-12-12T12:22:30.122Z,97204.31
2022-12-12T12:25:07.382Z,97206.16
2022-12-12T12:28:03.350Z,97202.75
2022-12-12T12:30:34.934Z,97208.03
2022-12-12T12:33:27.806Z,97210.69
2022-12-12T12:36:17.673Z,97216.94
2022-12-12T12:39:07.899Z,97209.97
2022-12-12T12:42:05.258Z,97217.06
2022-12-12T12:44:52.192Z,97214.59
2022-12-12T12:47:33.829Z,97210.28
2022-12-12T12:50:15.581Z,97215.56
2022-12-12T12:53:06.550Z,97218.19
2022-12-12T12:55:40.900Z,97208.03
2022-12-12T12:58:18.147Z,97187.91
2022-12-12T13:00:46.009Z,97182.50
2022-12-12T13:03:24.394Z,97206.38
2022-12-12T13:06:02.199Z,97212.06
2022-12-12T13:08:35.195Z,97211.94
2022-12-12T13:11:30.856Z,97217.63
2022-12-12T13:14:12.086Z,97233.31
2022-12-12T13:16:39.877Z,97226.25
2022-12-12T13:19:13.508Z,97235.94
2022-12-12T13:21:59.944Z,97230.81
2022-12-12T13:24:42.136Z,97235.25
2022-12-12T13:27:20.483Z,97230.97
2022-12-12T13:30:00.003Z,97230.13
2022-12-12T13:32:39.695Z,97233.59
2022-12-12T13:35:14.152Z,97234.44
2022-12-12T13:37:51.039Z,97241.53
2022-12-12T13:40:36.515Z,97245.81
2022-12-12T13:43:24.884Z,97244.97
2022-12-12T13:45:51.523Z,97244.00
2022-12-12T13:48:27.283Z,97248.44
2022-12-12T13:51:27.991Z,97251.06
2022-12-12T13:54:20.683Z,97255.53
2022-12-12T13:56:53.074Z,97252.91
2022-12-12T13:59:22.484Z,97258.16
2022-12-12T14:01:55.390Z,97261.50
2022-12-12T14:04:28.246Z,97265.94
2022-12-12T14:06:59.303Z,97262.47
2022-12-12T14:09:46.674Z,97272.06
2022-12-12T14:12:31.816Z,97262.75
2022-12-12T14:15:02.875Z,97272.06
2022-12-12T14:17:38.332Z,97279.13
2022-12-12T14:20:08.896Z,97275.66
2022-12-12T14:22:38.234Z,97277.34
2022-12-12T14:25:18.638Z,97276.50
2022-12-12T14:27:51.169Z,97275.66
2022-12-12T14:30:22.123Z,97282.75
2022-12-12T14:33:01.877Z,97280.94
2022-12-12T14:35:41.023Z,97285.53
2022-12-12T14:38:33.931Z,97289.84
2022-12-12T14:41:04.532Z,97277.59
2022-12-12T14:43:37.122Z,97281.22
2022-12-12T14:46:04.116Z,97279.41
2022-12-12T14:51:10.986Z,97283.84
2022-12-12T14:53:37.521Z,97288.31
2022-12-12T14:56:11.024Z,97294.41
2022-12-12T14:58:44.649Z,97288.69
2022-12-12T15:01:11.902Z,97296.38
2022-12-12T15:03:43.968Z,97293.84
2022-12-12T15:06:20.902Z,97286.47
2022-12-12T15:08:48.770Z,97301.63
2022-12-12T15:11:18.064Z,97302.47
2022-12-12T15:13:59.547Z,97310.53
2022-12-12T15:16:40.690Z,97313.16
2022-12-12T15:19:33.888Z,97311.47
2022-12-12T15:22:00.660Z,97303.41
2022-12-12T15:24:36.799Z,97316.91
2022-12-12T15:27:04.972Z,97303.53
2022-12-12T15:29:33.003Z,97326.75
2022-12-12T15:32:03.783Z,97315.19
2022-12-12T15:34:31.915Z,97328.56
2022-12-12T15:37:10.746Z,97320.75
2022-12-12T15:39:37.464Z,97317.44
2022-12-12T15:42:04.272Z,97322.00
2022-12-12T15:44:31.967Z,97325.34
2022-12-12T15:46:58.972Z,97300.31
2022-12-12T15:49:37.809Z,97318.41
2022-12-12T15:52:29.660Z,97330.75
2022-12-12T15:54:58.722Z,97330.75
2022-12-12T15:57:44.991Z,97330.88
2022-12-12T16:00:36.044Z,97327.00
2022-12-12T16:03:20.451Z,97335.19
2022-12-12T16:05:58.886Z,97337.13
2022-12-12T16:08:35.886Z,97339.91
2022-12-12T16:11:37.510Z,97343.25
2022-12-12T16:14:06.017Z,97341.59
2022-12-12T16:16:48.245Z,97339.09
2022-12-12T16:19:38.190Z,97351.41
2022-12-12T16:22:26.778Z,97350.59
2022-12-12T16:24:57.203Z,97356.84
2022-12-12T16:27:23.796Z,97349.06
2022-12-12T16:29:50.726Z,97357.94
2022-12-12T16:32:20.296Z,97344.03
2022-12-12T16:34:46.914Z,97346.97
2022-12-12T16:37:16.526Z,97349.31
2022-12-12T16:39:44.034Z,97361.41
2022-12-12T16:42:15.789Z,97349.75
2022-12-12T16:44:43.111Z,97349.03
2022-12-12T16:47:30.352Z,97372.09
2022-12-12T16:49:57.159Z,97373.06
2022-12-12T16:52:23.720Z,97364.56
2022-12-12T16:54:53.533Z,97338.56
2022-12-12T16:57:21.684Z,97375.00
2022-12-12T16:59:51.020Z,97371.66
2022-12-12T17:02:22.690Z,97386.53
2022-12-12T17:04:50.747Z,97388.31
2022-12-12T17:07:17.689Z,97386.91
2022-12-12T17:09:44.868Z,97400.66
2022-12-12T17:12:13.039Z,97397.22
2022-12-12T17:14:39.699Z,97402.47
2022-12-12T17:17:06.643Z,97389.41
2022-12-12T17:19:34.407Z,97383.25
2022-12-12T17:22:00.928Z,97394.09
2022-12-12T17:24:28.310Z,97400.91
2022-12-12T17:26:55.167Z,97407.88
2022-12-12T17:29:24.999Z,97395.34
2022-12-12T17:31:51.742Z,97409.69
2022-12-12T17:34:18.352Z,97416.75
2022-12-12T17:36:45.143Z,97397.56
2022-12-12T17:39:11.764Z,97408.81
2022-12-12T17:41:38.351Z,97416.75
2022-12-12T17:44:05.123Z,97412.47
2022-12-12T17:46:32.303Z,97423.81
2022-12-12T17:48:59.415Z,97422.16
2022-12-12T17:51:27.289Z,97426.59
2022-12-12T17:53:54.591Z,97424.22
2022-12-12T17:56:23.826Z,97418.13
2022-12-12T17:58:51.049Z,97423.25
2022-12-12T18:01:24.362Z,97434.63
2022-12-12T18:03:51.791Z,97434.63
2022-12-12T18:06:20.276Z,97437.25
2022-12-12T18:08:47.647Z,97445.16
2022-12-12T18:11:17.497Z,97433.50
2022-12-12T18:13:45.614Z,97435.63
2022-12-12T18:16:13.407Z,97426.41
2022-12-12T18:18:40.780Z,97442.81
2022-12-12T18:21:12.713Z,97443.78
2022-12-12T18:23:39.766Z,97448.09
2022-12-12T18:26:18.617Z,97448.09
2022-12-12T18:28:57.239Z,97439.34
2022-12-12T18:31:23.968Z,97456.00
2022-12-12T18:33:51.587Z,97442.50
2022-12-12T18:36:20.672Z,97453.34
2022-12-12T18:38:49.722Z,97448.22
2022-12-12T18:41:16.872Z,97458.78
2022-12-12T18:43:43.865Z,97447.88
2022-12-12T18:46:13.516Z,97469.41
2022-12-12T18:48:44.090Z,97467.63
2022-12-12T18:51:16.985Z,97473.16
2022-12-12T18:53:44.688Z,97480.81
2022-12-12T18:56:15.909Z,97481.78
2022-12-12T18:58:43.449Z,97485.38
2022-12-12T19:01:19.027Z,97482.50
2022-12-12T19:03:48.984Z,97486.81
2022-12-12T19:06:18.271Z,97488.59
2022-12-12T19:08:44.812Z,97493.88
2022-12-12T19:11:12.404Z,97496.50
2022-12-12T19:13:39.527Z,97492.59
2022-12-12T19:16:09.333Z,97508.00
2022-12-12T19:18:36.121Z,97515.09
2022-12-12T19:21:09.840Z,97521.34
2022-12-12T19:23:37.180Z,97522.28
2022-12-12T19:26:08.979Z,97515.34
2022-12-12T19:28:36.190Z,97517.66
2022-12-12T19:31:12.669Z,97515.16
2022-12-12T19:33:39.495Z,97513.63
2022-12-12T19:36:18.441Z,97527.94
2022-12-12T19:38:46.459Z,97533.22
2022-12-12T19:41:15.489Z,97534.44
2022-12-12T19:43:43.729Z,97545.56
2022-12-12T19:46:11.503Z,97543.06
2022-12-12T19:48:38.791Z,97537.44
2022-12-12T19:51:13.534Z,97545.56
2022-12-12T19:53:43.630Z,97540.94
2022-12-12T19:56:19.650Z,97553.63
2022-12-12T19:58:47.346Z,97537.72
2022-12-12T20:01:20.312Z,97553.72
2022-12-12T20:03:52.087Z,97580.09
2022-12-12T20:06:20.090Z,97548.50
2022-12-12T20:08:47.729Z,97558.81
2022-12-12T20:11:17.448Z,97567.88
2022-12-12T20:13:49.488Z,97575.81
2022-12-12T20:16:18.694Z,97579.53
2022-12-12T20:18:52.487Z,97580.22
2022-12-12T20:21:51.833Z,97595.22
2022-12-12T20:24:09.683Z,97571.41
2022-12-12T20:26:36.547Z,97553.94
2022-12-12T20:29:03.760Z,97583.22
2022-12-12T20:31:34.125Z,97589.09
2022-12-12T20:34:01.388Z,97580.50
2022-12-12T20:36:31.592Z,97581.81
2022-12-12T20:39:00.587Z,97574.63
2022-12-12T20:41:30.282Z,97572.38
2022-12-12T20:43:59.265Z,97598.44
2022-12-12T20:46:31.992Z,97596.03
2022-12-12T20:49:00.661Z,97612.31
2022-12-12T20:51:53.916Z,97608.72
2022-12-12T20:54:17.314Z,97598.22
2022-12-12T20:56:47.311Z,97604.22
2022-12-12T20:59:14.445Z,97619.38
2022-12-12T21:01:41.677Z,97601.00
2022-12-12T21:04:09.700Z,97611.53
2022-12-12T21:06:39.679Z,97624.66
2022-12-12T21:09:09.384Z,97617.63
2022-12-12T21:11:37.603Z,97630.91
2022-12-12T21:14:04.348Z,97622.66
2022-12-12T21:16:34.450Z,97628.97
2022-12-12T21:19:04.544Z,97636.03
2022-12-12T21:21:31.516Z,97619.06
2022-12-12T21:23:58.293Z,97640.34
2022-12-12T21:26:29.157Z,97647.31
2022-12-12T21:28:57.615Z,97650.78
2022-12-12T21:31:33.024Z,97647.16
2022-12-12T21:34:00.317Z,97660.34
2022-12-12T21:36:28.588Z,97635.44
2022-12-12T21:38:57.588Z,97658.44
2022-12-12T21:41:25.728Z,97624.13
2022-12-12T21:43:54.296Z,97628.44
2022-12-12T21:46:23.648Z,97666.13
2022-12-12T21:49:09.679Z,97656.75
2022-12-12T21:51:36.588Z,97665.25
2022-12-12T21:54:04.925Z,97657.03
2022-12-12T21:56:31.926Z,97668.03
2022-12-12T21:58:58.946Z,97680.00
2022-12-12T22:01:26.083Z,97676.41
2022-12-12T22:03:54.608Z,97679.84
2022-12-12T22:06:24.176Z,97679.16
2022-12-12T22:08:51.464Z,97678.91
2022-12-12T22:11:40.203Z,97674.59
2022-12-12T22:14:07.294Z,97688.50
2022-12-12T22:16:33.928Z,97688.50
2022-12-12T22:19:10.730Z,97684.06
2022-12-12T22:21:38.874Z,97694.63
2022-12-12T22:24:06.016Z,97665.75
2022-12-12T22:26:41.056Z,97692.81
2022-12-12T22:29:12.890Z,97693.63
2022-12-12T22:31:40.435Z,97677.84
2022-12-12T22:34:15.645Z,97694.50
2022-12-12T22:36:43.535Z,97692.09
2022-12-12T22:39:25.880Z,97690.53
2022-12-12T22:41:54.530Z,97699.75
2022-12-12T22:44:22.924Z,97696.53
2022-12-12T22:46:51.282Z,97702.53
2022-12-12T22:49:20.967Z,97703.34
2022-12-12T22:51:49.045Z,97705.03
2022-12-12T22:54:15.867Z,97698.13
2022-12-12T22:56:43.802Z,97707.91
2022-12-12T22:59:13.336Z,97715.13
2022-12-12T23:01:41.339Z,97723.63
2022-12-12T23:04:12.784Z,97721.81
2022-12-12T23:06:39.728Z,97729.72
2022-12-12T23:09:14.202Z,97715.94
2022-12-12T23:11:41.037Z,97722.78
2022-12-12T23:14:11.328Z,97729.72
2022-12-12T23:16:37.943Z,97728.91
2022-12-12T23:19:06.277Z,97719.09
2022-12-12T23:21:35.280Z,97735.97
2022-12-12T23:24:02.335Z,97742.19
2022-12-12T23:26:30.431Z,97745.69
2022-12-12T23:29:00.231Z,97738.00
2022-12-12T23:31:32.736Z,97747.47
2022-12-12T23:34:02.226Z,97745.78
2022-12-12T23:36:29.685Z,97744.00
2022-12-12T23:39:01.066Z,97743.16
2022-12-12T23:41:28.556Z,97748.41
2022-12-12T23:43:55.740Z,97751.06
2022-12-12T23:46:29.833Z,97746.19
2022-12-12T23:49:13.270Z,97754.56
2022-12-12T23:51:47.635Z,97758.97
2022-12-12T23:54:17.429Z,97761.59
2022-12-12T23:56:44.930Z,97756.34
2022-12-12T23:59:17.556Z,97753.38
